Terminal Aerodrome Forecast
Issued by NWS Caribou, ME

Home | Current Version | Previous Version | Text Only | Print | Product List | Glossary On
Versions: 1 2 3 4 5 6 7 8 9 10 11 12 13 14 15 16 17
000
FTUS41 KCAR 051830 AAA
TAFBGR
TAF AMD
KBGR 051830Z 0519/0618 16004KT 2SM -SN OVC025
     FM052300 09005KT 6SM -SN OVC025
     FM060200 03005KT P6SM OVC015
     FM060700 VRB03KT P6SM BKN025
     FM060800 31004KT P6SM BKN045
     FM061300 32005KT P6SM SCT250=

USA.gov is the U.S. government's official web portal to all federal, state and local government web resources and services.